sensor_id;sensor_type;location;lat;lon;timestamp;temperature;humidity
65824;SHT31;52585;47.566;19.056;2023-04-24T00:00:45;13.07;62.39
65824;SHT31;52585;47.566;19.056;2023-04-24T00:03:12;13.10;62.43
65824;SHT31;52585;47.566;19.056;2023-04-24T00:05:46;13.10;62.22
65824;SHT31;52585;47.566;19.056;2023-04-24T00:08:12;13.07;62.34
65824;SHT31;52585;47.566;19.056;2023-04-24T00:10:37;13.08;62.51
65824;SHT31;52585;47.566;19.056;2023-04-24T00:13:03;13.09;62.89
65824;SHT31;52585;47.566;19.056;2023-04-24T00:15:31;13.11;62.97
65824;SHT31;52585;47.566;19.056;2023-04-24T00:18:00;13.13;62.77
65824;SHT31;52585;47.566;19.056;2023-04-24T00:20:29;13.14;62.84
65824;SHT31;52585;47.566;19.056;2023-04-24T00:22:55;13.15;63.05
65824;SHT31;52585;47.566;19.056;2023-04-24T00:25:21;13.15;63.06
65824;SHT31;52585;47.566;19.056;2023-04-24T00:27:47;13.14;62.91
65824;SHT31;52585;47.566;19.056;2023-04-24T00:30:13;13.13;62.57
65824;SHT31;52585;47.566;19.056;2023-04-24T00:32:39;13.12;62.78
65824;SHT31;52585;47.566;19.056;2023-04-24T00:35:05;13.11;62.78
65824;SHT31;52585;47.566;19.056;2023-04-24T00:37:32;13.11;62.78
65824;SHT31;52585;47.566;19.056;2023-04-24T00:39:58;13.13;63.08
65824;SHT31;52585;47.566;19.056;2023-04-24T00:42:24;13.17;63.36
65824;SHT31;52585;47.566;19.056;2023-04-24T00:44:50;13.20;63.49
65824;SHT31;52585;47.566;19.056;2023-04-24T00:47:17;13.23;63.40
65824;SHT31;52585;47.566;19.056;2023-04-24T00:49:45;13.29;63.41
65824;SHT31;52585;47.566;19.056;2023-04-24T00:52:10;13.34;63.31
65824;SHT31;52585;47.566;19.056;2023-04-24T00:54:37;13.35;63.76
65824;SHT31;52585;47.566;19.056;2023-04-24T00:57:03;13.37;63.70
65824;SHT31;52585;47.566;19.056;2023-04-24T00:59:30;13.37;63.48
65824;SHT31;52585;47.566;19.056;2023-04-24T01:01:56;13.36;63.37
65824;SHT31;52585;47.566;19.056;2023-04-24T01:04:23;13.35;63.17
65824;SHT31;52585;47.566;19.056;2023-04-24T01:06:51;13.34;63.42
65824;SHT31;52585;47.566;19.056;2023-04-24T01:09:17;13.35;63.56
65824;SHT31;52585;47.566;19.056;2023-04-24T01:11:45;13.35;63.38
65824;SHT31;52585;47.566;19.056;2023-04-24T01:14:12;13.35;63.27
65824;SHT31;52585;47.566;19.056;2023-04-24T01:16:38;13.34;63.47
65824;SHT31;52585;47.566;19.056;2023-04-24T01:19:05;13.35;63.20
65824;SHT31;52585;47.566;19.056;2023-04-24T01:21:33;13.33;63.24
65824;SHT31;52585;47.566;19.056;2023-04-24T01:24:03;13.34;63.33
65824;SHT31;52585;47.566;19.056;2023-04-24T01:26:30;13.32;63.37
65824;SHT31;52585;47.566;19.056;2023-04-24T01:28:57;13.32;63.32
65824;SHT31;52585;47.566;19.056;2023-04-24T01:31:23;13.33;63.29
65824;SHT31;52585;47.566;19.056;2023-04-24T01:33:49;13.36;63.29
65824;SHT31;52585;47.566;19.056;2023-04-24T01:36:17;13.41;62.95
65824;SHT31;52585;47.566;19.056;2023-04-24T01:38:44;13.43;62.75
65824;SHT31;52585;47.566;19.056;2023-04-24T01:41:10;13.42;62.67
65824;SHT31;52585;47.566;19.056;2023-04-24T01:43:36;13.42;62.67
65824;SHT31;52585;47.566;19.056;2023-04-24T01:46:02;13.45;62.64
65824;SHT31;52585;47.566;19.056;2023-04-24T01:48:28;13.46;62.64
65824;SHT31;52585;47.566;19.056;2023-04-24T01:50:56;13.47;62.59
65824;SHT31;52585;47.566;19.056;2023-04-24T01:53:22;13.49;62.68
65824;SHT31;52585;47.566;19.056;2023-04-24T01:55:48;13.50;62.65
65824;SHT31;52585;47.566;19.056;2023-04-24T01:58:14;13.53;63.20
65824;SHT31;52585;47.566;19.056;2023-04-24T02:00:40;13.56;64.06
65824;SHT31;52585;47.566;19.056;2023-04-24T02:03:06;13.59;65.20
65824;SHT31;52585;47.566;19.056;2023-04-24T02:05:32;13.60;65.44
65824;SHT31;52585;47.566;19.056;2023-04-24T02:07:58;13.53;66.45
65824;SHT31;52585;47.566;19.056;2023-04-24T02:10:24;13.49;67.23
65824;SHT31;52585;47.566;19.056;2023-04-24T02:12:50;13.51;67.31
65824;SHT31;52585;47.566;19.056;2023-04-24T02:15:16;13.56;67.04
65824;SHT31;52585;47.566;19.056;2023-04-24T02:17:43;13.59;66.94
65824;SHT31;52585;47.566;19.056;2023-04-24T02:20:08;13.62;67.36
65824;SHT31;52585;47.566;19.056;2023-04-24T02:22:35;13.60;67.78
65824;SHT31;52585;47.566;19.056;2023-04-24T02:25:01;13.55;67.26
65824;SHT31;52585;47.566;19.056;2023-04-24T02:27:27;13.51;67.48
65824;SHT31;52585;47.566;19.056;2023-04-24T02:29:53;13.47;67.52
65824;SHT31;52585;47.566;19.056;2023-04-24T02:32:20;13.47;67.70
65824;SHT31;52585;47.566;19.056;2023-04-24T02:34:46;13.49;67.55
65824;SHT31;52585;47.566;19.056;2023-04-24T02:37:12;13.54;67.47
65824;SHT31;52585;47.566;19.056;2023-04-24T02:39:38;13.56;67.40
65824;SHT31;52585;47.566;19.056;2023-04-24T02:42:04;13.57;66.99
65824;SHT31;52585;47.566;19.056;2023-04-24T02:44:30;13.55;67.23
65824;SHT31;52585;47.566;19.056;2023-04-24T02:46:56;13.51;67.34
65824;SHT31;52585;47.566;19.056;2023-04-24T02:49:22;13.50;67.82
65824;SHT31;52585;47.566;19.056;2023-04-24T02:51:48;13.47;67.72
65824;SHT31;52585;47.566;19.056;2023-04-24T02:54:14;13.46;68.07
65824;SHT31;52585;47.566;19.056;2023-04-24T02:56:40;13.49;67.73
65824;SHT31;52585;47.566;19.056;2023-04-24T02:59:06;13.50;67.76
65824;SHT31;52585;47.566;19.056;2023-04-24T03:01:31;13.48;68.14
65824;SHT31;52585;47.566;19.056;2023-04-24T03:03:57;13.46;68.01
65824;SHT31;52585;47.566;19.056;2023-04-24T03:06:23;13.43;68.28
65824;SHT31;52585;47.566;19.056;2023-04-24T03:08:49;13.43;68.44
65824;SHT31;52585;47.566;19.056;2023-04-24T03:11:15;13.44;68.29
65824;SHT31;52585;47.566;19.056;2023-04-24T03:13:41;13.43;68.08
65824;SHT31;52585;47.566;19.056;2023-04-24T03:16:06;13.37;67.89
65824;SHT31;52585;47.566;19.056;2023-04-24T03:18:32;13.35;67.92
65824;SHT31;52585;47.566;19.056;2023-04-24T03:20:58;13.35;67.90
65824;SHT31;52585;47.566;19.056;2023-04-24T03:23:24;13.35;68.10
65824;SHT31;52585;47.566;19.056;2023-04-24T03:25:50;13.35;68.09
65824;SHT31;52585;47.566;19.056;2023-04-24T03:28:16;13.31;67.86
65824;SHT31;52585;47.566;19.056;2023-04-24T03:30:42;13.28;68.32
65824;SHT31;52585;47.566;19.056;2023-04-24T03:33:08;13.32;68.72
65824;SHT31;52585;47.566;19.056;2023-04-24T03:35:34;13.34;68.46
65824;SHT31;52585;47.566;19.056;2023-04-24T03:38:01;13.34;68.36
65824;SHT31;52585;47.566;19.056;2023-04-24T03:40:29;13.35;68.25
65824;SHT31;52585;47.566;19.056;2023-04-24T03:42:55;13.34;68.46
65824;SHT31;52585;47.566;19.056;2023-04-24T03:45:20;13.33;68.44
65824;SHT31;52585;47.566;19.056;2023-04-24T03:47:47;13.34;68.59
65824;SHT31;52585;47.566;19.056;2023-04-24T03:50:13;13.31;68.74
65824;SHT31;52585;47.566;19.056;2023-04-24T03:52:38;13.30;68.72
65824;SHT31;52585;47.566;19.056;2023-04-24T03:55:05;13.28;68.55
65824;SHT31;52585;47.566;19.056;2023-04-24T03:57:32;13.23;68.33
65824;SHT31;52585;47.566;19.056;2023-04-24T03:59:57;13.22;68.48
65824;SHT31;52585;47.566;19.056;2023-04-24T04:02:24;13.24;68.54
65824;SHT31;52585;47.566;19.056;2023-04-24T04:04:49;13.25;68.38
65824;SHT31;52585;47.566;19.056;2023-04-24T04:07:15;13.24;68.41
65824;SHT31;52585;47.566;19.056;2023-04-24T04:09:41;13.24;68.37
65824;SHT31;52585;47.566;19.056;2023-04-24T04:12:07;13.22;68.47
65824;SHT31;52585;47.566;19.056;2023-04-24T04:14:33;13.19;68.42
65824;SHT31;52585;47.566;19.056;2023-04-24T04:16:59;13.18;68.50
65824;SHT31;52585;47.566;19.056;2023-04-24T04:19:26;13.16;68.36
65824;SHT31;52585;47.566;19.056;2023-04-24T04:21:52;13.15;68.42
65824;SHT31;52585;47.566;19.056;2023-04-24T04:24:21;13.15;68.08
65824;SHT31;52585;47.566;19.056;2023-04-24T04:26:47;13.15;68.29
65824;SHT31;52585;47.566;19.056;2023-04-24T04:29:16;13.16;67.99
65824;SHT31;52585;47.566;19.056;2023-04-24T04:31:43;13.19;68.16
65824;SHT31;52585;47.566;19.056;2023-04-24T04:34:10;13.21;68.13
65824;SHT31;52585;47.566;19.056;2023-04-24T04:36:36;13.21;68.22
65824;SHT31;52585;47.566;19.056;2023-04-24T04:39:05;13.21;68.30
65824;SHT31;52585;47.566;19.056;2023-04-24T04:41:32;13.20;68.30
65824;SHT31;52585;47.566;19.056;2023-04-24T04:44:00;13.23;68.10
65824;SHT31;52585;47.566;19.056;2023-04-24T04:46:30;13.23;68.14
65824;SHT31;52585;47.566;19.056;2023-04-24T04:48:59;13.24;68.46
65824;SHT31;52585;47.566;19.056;2023-04-24T04:51:26;13.25;68.31
65824;SHT31;52585;47.566;19.056;2023-04-24T04:53:52;13.25;68.22
65824;SHT31;52585;47.566;19.056;2023-04-24T04:56:19;13.27;68.43
65824;SHT31;52585;47.566;19.056;2023-04-24T04:58:45;13.28;68.33
65824;SHT31;52585;47.566;19.056;2023-04-24T05:01:11;13.30;68.24
65824;SHT31;52585;47.566;19.056;2023-04-24T05:03:37;13.27;67.91
65824;SHT31;52585;47.566;19.056;2023-04-24T05:06:03;13.23;68.20
65824;SHT31;52585;47.566;19.056;2023-04-24T05:08:29;13.24;68.46
65824;SHT31;52585;47.566;19.056;2023-04-24T05:10:55;13.29;68.69
65824;SHT31;52585;47.566;19.056;2023-04-24T05:13:21;13.33;68.44
65824;SHT31;52585;47.566;19.056;2023-04-24T05:15:47;13.36;67.96
65824;SHT31;52585;47.566;19.056;2023-04-24T05:18:13;13.36;67.73
65824;SHT31;52585;47.566;19.056;2023-04-24T05:20:40;13.37;67.98
65824;SHT31;52585;47.566;19.056;2023-04-24T05:23:08;13.36;68.47
65824;SHT31;52585;47.566;19.056;2023-04-24T05:25:35;13.39;68.59
65824;SHT31;52585;47.566;19.056;2023-04-24T05:28:01;13.44;68.77
65824;SHT31;52585;47.566;19.056;2023-04-24T05:30:28;13.48;68.79
65824;SHT31;52585;47.566;19.056;2023-04-24T05:32:54;13.50;68.56
65824;SHT31;52585;47.566;19.056;2023-04-24T05:35:20;13.50;68.64
65824;SHT31;52585;47.566;19.056;2023-04-24T05:37:46;13.54;68.35
65824;SHT31;52585;47.566;19.056;2023-04-24T05:40:12;13.57;68.70
65824;SHT31;52585;47.566;19.056;2023-04-24T05:42:38;13.63;68.83
65824;SHT31;52585;47.566;19.056;2023-04-24T05:45:04;13.68;69.15
65824;SHT31;52585;47.566;19.056;2023-04-24T05:47:31;13.72;68.40
65824;SHT31;52585;47.566;19.056;2023-04-24T05:49:56;13.73;68.02
65824;SHT31;52585;47.566;19.056;2023-04-24T05:52:22;13.73;67.93
65824;SHT31;52585;47.566;19.056;2023-04-24T05:54:48;13.75;68.47
65824;SHT31;52585;47.566;19.056;2023-04-24T05:57:14;13.79;68.90
65824;SHT31;52585;47.566;19.056;2023-04-24T05:59:40;13.81;68.47
65824;SHT31;52585;47.566;19.056;2023-04-24T06:02:06;13.85;68.39
65824;SHT31;52585;47.566;19.056;2023-04-24T06:04:32;13.89;68.65
65824;SHT31;52585;47.566;19.056;2023-04-24T06:06:59;13.93;68.53
65824;SHT31;52585;47.566;19.056;2023-04-24T06:09:25;13.99;68.20
65824;SHT31;52585;47.566;19.056;2023-04-24T06:11:51;14.02;68.38
65824;SHT31;52585;47.566;19.056;2023-04-24T06:14:18;14.07;68.03
65824;SHT31;52585;47.566;19.056;2023-04-24T06:16:45;14.13;67.77
65824;SHT31;52585;47.566;19.056;2023-04-24T06:19:10;14.16;67.54
65824;SHT31;52585;47.566;19.056;2023-04-24T06:21:36;14.19;67.82
65824;SHT31;52585;47.566;19.056;2023-04-24T06:24:02;14.23;67.83
65824;SHT31;52585;47.566;19.056;2023-04-24T06:26:29;14.27;67.53
65824;SHT31;52585;47.566;19.056;2023-04-24T06:28:56;14.28;67.45
65824;SHT31;52585;47.566;19.056;2023-04-24T06:31:24;14.32;67.68
65824;SHT31;52585;47.566;19.056;2023-04-24T06:33:50;14.36;67.99
65824;SHT31;52585;47.566;19.056;2023-04-24T06:36:16;14.40;68.09
65824;SHT31;52585;47.566;19.056;2023-04-24T06:38:42;14.45;68.28
65824;SHT31;52585;47.566;19.056;2023-04-24T06:41:08;14.49;68.25
65824;SHT31;52585;47.566;19.056;2023-04-24T06:43:35;14.54;68.65
65824;SHT31;52585;47.566;19.056;2023-04-24T06:46:01;14.56;68.46
65824;SHT31;52585;47.566;19.056;2023-04-24T06:48:28;14.58;68.52
65824;SHT31;52585;47.566;19.056;2023-04-24T06:50:54;14.62;68.45
65824;SHT31;52585;47.566;19.056;2023-04-24T06:53:20;14.67;68.07
65824;SHT31;52585;47.566;19.056;2023-04-24T06:55:46;14.69;68.07
65824;SHT31;52585;47.566;19.056;2023-04-24T06:58:13;14.73;68.00
65824;SHT31;52585;47.566;19.056;2023-04-24T07:00:41;14.77;67.77
65824;SHT31;52585;47.566;19.056;2023-04-24T07:03:06;14.82;67.90
65824;SHT31;52585;47.566;19.056;2023-04-24T07:05:32;14.87;67.99
65824;SHT31;52585;47.566;19.056;2023-04-24T07:08:03;14.91;67.84
65824;SHT31;52585;47.566;19.056;2023-04-24T07:10:29;14.95;67.90
65824;SHT31;52585;47.566;19.056;2023-04-24T07:12:55;14.98;67.55
65824;SHT31;52585;47.566;19.056;2023-04-24T07:15:22;15.01;67.27
65824;SHT31;52585;47.566;19.056;2023-04-24T07:17:48;15.04;67.12
65824;SHT31;52585;47.566;19.056;2023-04-24T07:20:15;15.06;67.29
65824;SHT31;52585;47.566;19.056;2023-04-24T07:22:41;15.07;67.24
65824;SHT31;52585;47.566;19.056;2023-04-24T07:25:07;15.07;67.38
65824;SHT31;52585;47.566;19.056;2023-04-24T07:27:34;15.09;67.12
65824;SHT31;52585;47.566;19.056;2023-04-24T07:30:01;15.13;67.12
65824;SHT31;52585;47.566;19.056;2023-04-24T07:32:29;15.16;66.94
65824;SHT31;52585;47.566;19.056;2023-04-24T07:34:55;15.19;66.94
65824;SHT31;52585;47.566;19.056;2023-04-24T07:37:21;15.22;66.92
65824;SHT31;52585;47.566;19.056;2023-04-24T07:39:49;15.24;66.91
65824;SHT31;52585;47.566;19.056;2023-04-24T07:42:15;15.27;66.85
65824;SHT31;52585;47.566;19.056;2023-04-24T07:44:40;15.28;66.68
65824;SHT31;52585;47.566;19.056;2023-04-24T07:47:06;15.29;66.58
65824;SHT31;52585;47.566;19.056;2023-04-24T07:49:33;15.30;66.45
65824;SHT31;52585;47.566;19.056;2023-04-24T07:52:00;15.32;66.41
65824;SHT31;52585;47.566;19.056;2023-04-24T07:54:27;15.34;66.47
65824;SHT31;52585;47.566;19.056;2023-04-24T07:56:54;15.38;66.43
65824;SHT31;52585;47.566;19.056;2023-04-24T07:59:19;15.41;66.43
65824;SHT31;52585;47.566;19.056;2023-04-24T08:01:45;15.48;66.34
65824;SHT31;52585;47.566;19.056;2023-04-24T08:04:11;15.54;66.33
65824;SHT31;52585;47.566;19.056;2023-04-24T08:06:36;15.59;66.47
65824;SHT31;52585;47.566;19.056;2023-04-24T08:09:02;15.66;66.54
65824;SHT31;52585;47.566;19.056;2023-04-24T08:11:28;15.75;66.54
65824;SHT31;52585;47.566;19.056;2023-04-24T08:13:54;15.84;66.36
65824;SHT31;52585;47.566;19.056;2023-04-24T08:16:20;15.91;66.23
65824;SHT31;52585;47.566;19.056;2023-04-24T08:18:45;15.97;66.06
65824;SHT31;52585;47.566;19.056;2023-04-24T08:21:11;16.03;66.12
65824;SHT31;52585;47.566;19.056;2023-04-24T08:23:42;16.11;66.09
65824;SHT31;52585;47.566;19.056;2023-04-24T08:26:08;16.17;66.09
65824;SHT31;52585;47.566;19.056;2023-04-24T08:28:35;16.24;66.14
65824;SHT31;52585;47.566;19.056;2023-04-24T08:31:01;16.31;66.07
65824;SHT31;52585;47.566;19.056;2023-04-24T08:33:27;16.37;65.92
65824;SHT31;52585;47.566;19.056;2023-04-24T08:35:59;16.42;66.18
65824;SHT31;52585;47.566;19.056;2023-04-24T08:38:29;16.46;66.03
65824;SHT31;52585;47.566;19.056;2023-04-24T08:40:56;16.49;66.14
65824;SHT31;52585;47.566;19.056;2023-04-24T08:43:24;16.55;66.22
65824;SHT31;52585;47.566;19.056;2023-04-24T08:45:52;16.59;65.96
65824;SHT31;52585;47.566;19.056;2023-04-24T08:48:21;16.63;66.00
65824;SHT31;52585;47.566;19.056;2023-04-24T08:50:49;16.66;65.98
65824;SHT31;52585;47.566;19.056;2023-04-24T08:53:16;16.68;65.82
65824;SHT31;52585;47.566;19.056;2023-04-24T08:55:46;16.70;65.89
65824;SHT31;52585;47.566;19.056;2023-04-24T08:58:14;16.73;65.67
65824;SHT31;52585;47.566;19.056;2023-04-24T09:00:43;16.75;65.64
65824;SHT31;52585;47.566;19.056;2023-04-24T09:03:15;16.78;65.54
65824;SHT31;52585;47.566;19.056;2023-04-24T09:05:48;16.81;65.35
65824;SHT31;52585;47.566;19.056;2023-04-24T09:08:19;16.83;65.07
65824;SHT31;52585;47.566;19.056;2023-04-24T09:10:46;16.83;64.97
65824;SHT31;52585;47.566;19.056;2023-04-24T09:13:12;16.87;64.92
65824;SHT31;52585;47.566;19.056;2023-04-24T09:15:40;16.91;64.80
65824;SHT31;52585;47.566;19.056;2023-04-24T09:18:07;16.96;64.83
65824;SHT31;52585;47.566;19.056;2023-04-24T09:20:33;17.01;64.77
65824;SHT31;52585;47.566;19.056;2023-04-24T09:23:01;17.05;64.71
65824;SHT31;52585;47.566;19.056;2023-04-24T09:25:34;17.12;64.62
65824;SHT31;52585;47.566;19.056;2023-04-24T09:28:04;17.18;64.53
65824;SHT31;52585;47.566;19.056;2023-04-24T09:30:31;17.25;64.50
65824;SHT31;52585;47.566;19.056;2023-04-24T09:33:13;17.30;64.57
65824;SHT31;52585;47.566;19.056;2023-04-24T09:35:41;17.38;64.50
65824;SHT31;52585;47.566;19.056;2023-04-24T09:38:13;17.43;64.05
65824;SHT31;52585;47.566;19.056;2023-04-24T09:40:39;17.46;63.58
65824;SHT31;52585;47.566;19.056;2023-04-24T09:43:09;17.51;63.37
65824;SHT31;52585;47.566;19.056;2023-04-24T09:45:37;17.58;63.42
65824;SHT31;52585;47.566;19.056;2023-04-24T09:48:04;17.64;63.30
65824;SHT31;52585;47.566;19.056;2023-04-24T09:50:34;17.68;63.03
65824;SHT31;52585;47.566;19.056;2023-04-24T09:53:03;17.71;63.03
65824;SHT31;52585;47.566;19.056;2023-04-24T09:55:38;17.73;62.79
65824;SHT31;52585;47.566;19.056;2023-04-24T09:58:09;17.75;62.29
65824;SHT31;52585;47.566;19.056;2023-04-24T10:00:35;17.76;62.43
65824;SHT31;52585;47.566;19.056;2023-04-24T10:03:02;17.77;62.47
65824;SHT31;52585;47.566;19.056;2023-04-24T10:05:35;17.77;62.26
65824;SHT31;52585;47.566;19.056;2023-04-24T10:08:03;17.79;61.88
65824;SHT31;52585;47.566;19.056;2023-04-24T10:10:40;17.80;62.05
65824;SHT31;52585;47.566;19.056;2023-04-24T10:13:11;17.81;62.05
65824;SHT31;52585;47.566;19.056;2023-04-24T10:15:40;17.81;61.95
65824;SHT31;52585;47.566;19.056;2023-04-24T10:18:08;17.81;61.71
65824;SHT31;52585;47.566;19.056;2023-04-24T10:20:35;17.82;61.61
65824;SHT31;52585;47.566;19.056;2023-04-24T10:23:03;17.81;61.37
65824;SHT31;52585;47.566;19.056;2023-04-24T10:25:31;17.81;61.40
65824;SHT31;52585;47.566;19.056;2023-04-24T10:28:00;17.82;61.43
65824;SHT31;52585;47.566;19.056;2023-04-24T10:30:28;17.81;61.42
65824;SHT31;52585;47.566;19.056;2023-04-24T10:33:00;17.81;61.33
65824;SHT31;52585;47.566;19.056;2023-04-24T10:35:31;17.81;61.13
65824;SHT31;52585;47.566;19.056;2023-04-24T10:38:14;17.82;61.11
65824;SHT31;52585;47.566;19.056;2023-04-24T10:40:49;17.83;61.12
65824;SHT31;52585;47.566;19.056;2023-04-24T10:43:16;17.85;61.08
65824;SHT31;52585;47.566;19.056;2023-04-24T10:46:00;17.86;61.06
65824;SHT31;52585;47.566;19.056;2023-04-24T10:48:28;17.86;61.01
65824;SHT31;52585;47.566;19.056;2023-04-24T10:50:54;17.86;61.03
65824;SHT31;52585;47.566;19.056;2023-04-24T10:53:24;17.86;60.83
65824;SHT31;52585;47.566;19.056;2023-04-24T10:55:58;17.86;60.70
65824;SHT31;52585;47.566;19.056;2023-04-24T11:01:25;17.87;60.72
65824;SHT31;52585;47.566;19.056;2023-04-24T11:03:54;17.88;60.72
65824;SHT31;52585;47.566;19.056;2023-04-24T11:06:33;17.88;60.91
65824;SHT31;52585;47.566;19.056;2023-04-24T11:09:05;17.86;60.93
65824;SHT31;52585;47.566;19.056;2023-04-24T11:11:37;17.85;61.00
65824;SHT31;52585;47.566;19.056;2023-04-24T11:14:09;17.86;61.11
65824;SHT31;52585;47.566;19.056;2023-04-24T11:16:42;17.86;61.14
65824;SHT31;52585;47.566;19.056;2023-04-24T11:21:46;17.87;61.38
65824;SHT31;52585;47.566;19.056;2023-04-24T11:24:30;17.88;61.37
65824;SHT31;52585;47.566;19.056;2023-04-24T11:27:19;17.88;61.37
65824;SHT31;52585;47.566;19.056;2023-04-24T11:29:48;17.89;61.39
65824;SHT31;52585;47.566;19.056;2023-04-24T11:32:29;17.91;61.26
65824;SHT31;52585;47.566;19.056;2023-04-24T11:35:01;17.92;61.12
65824;SHT31;52585;47.566;19.056;2023-04-24T11:37:39;17.93;61.16
65824;SHT31;52585;47.566;19.056;2023-04-24T11:40:16;17.96;60.90
65824;SHT31;52585;47.566;19.056;2023-04-24T11:42:46;17.99;61.00
65824;SHT31;52585;47.566;19.056;2023-04-24T11:45:14;18.01;61.13
65824;SHT31;52585;47.566;19.056;2023-04-24T11:47:42;18.03;61.11
65824;SHT31;52585;47.566;19.056;2023-04-24T11:50:10;18.05;61.16
65824;SHT31;52585;47.566;19.056;2023-04-24T11:52:39;18.06;61.05
65824;SHT31;52585;47.566;19.056;2023-04-24T11:55:29;18.06;61.11
65824;SHT31;52585;47.566;19.056;2023-04-24T11:57:55;18.08;61.03
65824;SHT31;52585;47.566;19.056;2023-04-24T12:00:28;18.11;61.04
65824;SHT31;52585;47.566;19.056;2023-04-24T12:03:12;18.15;61.18
65824;SHT31;52585;47.566;19.056;2023-04-24T12:05:39;18.19;61.27
65824;SHT31;52585;47.566;19.056;2023-04-24T12:08:05;18.25;61.10
65824;SHT31;52585;47.566;19.056;2023-04-24T12:10:32;18.31;60.92
65824;SHT31;52585;47.566;19.056;2023-04-24T12:12:59;18.34;60.92
65824;SHT31;52585;47.566;19.056;2023-04-24T12:15:26;18.36;61.09
65824;SHT31;52585;47.566;19.056;2023-04-24T12:17:52;18.39;60.92
65824;SHT31;52585;47.566;19.056;2023-04-24T12:20:24;18.39;60.87
65824;SHT31;52585;47.566;19.056;2023-04-24T12:22:54;18.40;60.99
65824;SHT31;52585;47.566;19.056;2023-04-24T12:25:25;18.36;61.19
65824;SHT31;52585;47.566;19.056;2023-04-24T12:27:55;18.36;61.28
65824;SHT31;52585;47.566;19.056;2023-04-24T12:30:42;18.34;61.27
65824;SHT31;52585;47.566;19.056;2023-04-24T12:33:22;18.30;61.28
65824;SHT31;52585;47.566;19.056;2023-04-24T12:35:51;18.29;61.24
65824;SHT31;52585;47.566;19.056;2023-04-24T12:38:24;18.26;61.28
65824;SHT31;52585;47.566;19.056;2023-04-24T12:41:08;18.21;61.28
65824;SHT31;52585;47.566;19.056;2023-04-24T12:43:37;18.17;61.40
65824;SHT31;52585;47.566;19.056;2023-04-24T12:46:03;18.14;61.40
65824;SHT31;52585;47.566;19.056;2023-04-24T12:48:30;18.11;61.37
65824;SHT31;52585;47.566;19.056;2023-04-24T12:50:57;18.08;61.46
65824;SHT31;52585;47.566;19.056;2023-04-24T12:53:26;18.08;61.54
65824;SHT31;52585;47.566;19.056;2023-04-24T12:55:54;18.04;61.74
65824;SHT31;52585;47.566;19.056;2023-04-24T12:58:21;18.03;61.76
65824;SHT31;52585;47.566;19.056;2023-04-24T13:00:47;18.03;61.78
65824;SHT31;52585;47.566;19.056;2023-04-24T13:03:13;18.03;61.88
65824;SHT31;52585;47.566;19.056;2023-04-24T13:05:40;18.03;61.96
65824;SHT31;52585;47.566;19.056;2023-04-24T13:08:07;18.04;61.92
65824;SHT31;52585;47.566;19.056;2023-04-24T13:10:33;18.05;61.99
65824;SHT31;52585;47.566;19.056;2023-04-24T13:12:59;18.05;62.07
65824;SHT31;52585;47.566;19.056;2023-04-24T13:15:25;18.04;62.17
65824;SHT31;52585;47.566;19.056;2023-04-24T13:17:51;18.05;62.25
65824;SHT31;52585;47.566;19.056;2023-04-24T13:20:17;18.07;62.46
65824;SHT31;52585;47.566;19.056;2023-04-24T13:22:43;18.08;62.58
65824;SHT31;52585;47.566;19.056;2023-04-24T13:25:09;18.11;62.16
65824;SHT31;52585;47.566;19.056;2023-04-24T13:27:35;18.12;62.33
65824;SHT31;52585;47.566;19.056;2023-04-24T13:30:04;18.10;62.51
65824;SHT31;52585;47.566;19.056;2023-04-24T13:32:31;18.10;62.48
65824;SHT31;52585;47.566;19.056;2023-04-24T13:34:58;18.10;62.60
65824;SHT31;52585;47.566;19.056;2023-04-24T13:37:24;18.08;62.63
65824;SHT31;52585;47.566;19.056;2023-04-24T13:39:50;18.03;62.97
65824;SHT31;52585;47.566;19.056;2023-04-24T13:42:15;18.01;63.47
65824;SHT31;52585;47.566;19.056;2023-04-24T13:44:41;17.98;63.87
65824;SHT31;52585;47.566;19.056;2023-04-24T13:47:07;17.97;63.92
65824;SHT31;52585;47.566;19.056;2023-04-24T13:49:34;17.93;64.11
65824;SHT31;52585;47.566;19.056;2023-04-24T13:52:06;17.92;64.43
65824;SHT31;52585;47.566;19.056;2023-04-24T13:54:39;17.89;64.61
65824;SHT31;52585;47.566;19.056;2023-04-24T13:57:08;17.88;64.79
65824;SHT31;52585;47.566;19.056;2023-04-24T13:59:43;17.89;64.55
65824;SHT31;52585;47.566;19.056;2023-04-24T14:02:14;17.88;64.51
65824;SHT31;52585;47.566;19.056;2023-04-24T14:04:45;17.86;64.38
65824;SHT31;52585;47.566;19.056;2023-04-24T14:07:13;17.85;64.61
65824;SHT31;52585;47.566;19.056;2023-04-24T14:09:44;17.80;65.10
65824;SHT31;52585;47.566;19.056;2023-04-24T14:12:10;17.74;65.55
65824;SHT31;52585;47.566;19.056;2023-04-24T14:14:35;17.71;66.30
65824;SHT31;52585;47.566;19.056;2023-04-24T14:17:01;17.67;66.44
65824;SHT31;52585;47.566;19.056;2023-04-24T14:19:27;17.61;67.01
65824;SHT31;52585;47.566;19.056;2023-04-24T14:21:53;17.59;67.32
65824;SHT31;52585;47.566;19.056;2023-04-24T14:24:20;17.58;67.71
65824;SHT31;52585;47.566;19.056;2023-04-24T14:26:46;17.57;67.71
65824;SHT31;52585;47.566;19.056;2023-04-24T14:29:12;17.57;68.17
65824;SHT31;52585;47.566;19.056;2023-04-24T14:31:37;17.56;68.10
65824;SHT31;52585;47.566;19.056;2023-04-24T14:34:04;17.55;68.27
65824;SHT31;52585;47.566;19.056;2023-04-24T14:36:30;17.54;68.03
65824;SHT31;52585;47.566;19.056;2023-04-24T14:38:56;17.49;68.32
65824;SHT31;52585;47.566;19.056;2023-04-24T14:41:22;17.43;68.70
65824;SHT31;52585;47.566;19.056;2023-04-24T14:43:51;17.42;69.51
65824;SHT31;52585;47.566;19.056;2023-04-24T14:46:18;17.43;69.37
65824;SHT31;52585;47.566;19.056;2023-04-24T14:48:44;17.43;69.61
65824;SHT31;52585;47.566;19.056;2023-04-24T14:51:11;17.41;69.71
65824;SHT31;52585;47.566;19.056;2023-04-24T14:53:41;17.42;69.41
65824;SHT31;52585;47.566;19.056;2023-04-24T14:56:22;17.42;69.30
65824;SHT31;52585;47.566;19.056;2023-04-24T14:58:48;17.39;69.33
65824;SHT31;52585;47.566;19.056;2023-04-24T15:01:14;17.37;69.64
65824;SHT31;52585;47.566;19.056;2023-04-24T15:03:40;17.35;69.47
65824;SHT31;52585;47.566;19.056;2023-04-24T15:06:06;17.33;69.54
65824;SHT31;52585;47.566;19.056;2023-04-24T15:08:31;17.31;69.96
65824;SHT31;52585;47.566;19.056;2023-04-24T15:10:57;17.32;69.92
65824;SHT31;52585;47.566;19.056;2023-04-24T15:13:23;17.34;69.63
65824;SHT31;52585;47.566;19.056;2023-04-24T15:15:49;17.34;69.47
65824;SHT31;52585;47.566;19.056;2023-04-24T15:18:15;17.33;69.69
65824;SHT31;52585;47.566;19.056;2023-04-24T15:20:41;17.33;69.64
65824;SHT31;52585;47.566;19.056;2023-04-24T15:23:07;17.33;69.71